Ana Sayfa
METAR-TAF:

METAR-TAF

Havaalanları :

Franklin Municipal-John Beverly Rose Airport

Franklin, Virginia, Amerika Birleşik Devletleri

Enlem: 36-42N, Boylam: 076-54W, yükseklik: 12 m

Güncel hava durumu gözlemi

Rapor saat 08:55 UTC de 6 dakika önce yapıldı.
Rüzgar güney/güneydoğudan 3 kt
Sıcaklık 9°C
Nem 100%
Basınç 1013 hPa
Görüş mesafesi: 1.6 km
300 ft yükseklikte çok bulutlu
Pus

METAR: KFKN 250855Z AUTO 16003KT 1SM BR OVC003 09/09 A2990 RMK AO2 60001 T00870085

Saat: 04:01 (09:01 UTC)


TAF: eksik

4.000'den fazla havaalanı için hava durumu gözlemleri ve tahminleri (METAR ve TAF raporları).

Kullanılabilir istasyonlar harita üzerinde sarı ve kırmızı noktalarla gösterilir.

İstasyonun adını görmek için fareyi noktanın üzerinde gezdirin.

Sonrasında hava gözlem ve tahminlerini görmek için tıklayın.

Haritayı değiştirmek için: yaklaştırmak için siyah artı işaretli yeşil düğmeye ve uzaklaştırmak için de eksi işaretli düğmeye hızla tıklayın; bitişik haritalar için yeşil okları kullanın.


METAR-TAF: